Time;durP1;ratioP1;P1;durP2;ratioP2;P2;SDS_P1;SDS_P2;PMS_P1;PMS_P2;Temp;Humidity;BMP_temperature;BMP_pressure;BME280_temperature;BME280_humidity;BME280_pressure;Samples;Min_cycle;Max_cycle;Signal;HPM_P1;HPM_P2
2021/01/06 00:00:41;;;;;;;22.87;13.17;;;0.50;99.90;;;;;;5052547;28;20691;-72
2021/01/06 00:03:17;;;;;;;22.37;12.20;;;0.50;99.90;;;;;;5052573;28;20201;-72
2021/01/06 00:05:43;;;;;;;28.63;12.97;;;0.50;99.90;;;;;;5052662;28;20852;-70
2021/01/06 00:08:09;;;;;;;24.53;13.27;;;0.50;99.90;;;;;;5052727;28;20173;-73
2021/01/06 00:10:35;;;;;;;20.93;12.17;;;0.50;99.90;;;;;;5051756;28;20221;-73
2021/01/06 00:13:01;;;;;;;24.57;13.23;;;0.50;99.90;;;;;;5052469;28;20270;-73
2021/01/06 00:15:28;;;;;;;22.40;13.23;;;0.50;99.90;;;;;;5051186;28;20189;-73
2021/01/06 00:17:54;;;;;;;24.63;13.80;;;0.50;99.90;;;;;;5052524;28;20180;-73
2021/01/06 00:20:22;;;;;;;23.53;12.40;;;0.50;99.90;;;;;;5052209;28;20252;-71
2021/01/06 00:22:47;;;;;;;23.53;13.37;;;0.50;99.90;;;;;;5052676;28;20707;-71
2021/01/06 00:25:19;;;;;;;21.87;12.27;;;0.50;99.90;;;;;;5052403;28;20289;-71
2021/01/06 00:27:45;;;;;;;23.60;13.17;;;0.50;99.90;;;;;;5052122;28;20224;-71
2021/01/06 00:30:38;;;;;;;26.67;13.47;;;0.60;99.90;;;;;;5052448;28;20187;-71
2021/01/06 00:33:08;;;;;;;27.83;14.00;;;0.60;99.90;;;;;;5046799;28;20189;-68
2021/01/06 00:35:34;;;;;;;25.53;14.27;;;0.60;99.90;;;;;;5052261;28;20173;-71
2021/01/06 00:38:00;;;;;;;21.70;12.73;;;0.60;99.90;;;;;;5052285;28;20219;-72
2021/01/06 00:40:32;;;;;;;26.20;13.87;;;0.60;99.90;;;;;;5052261;28;20644;-72
2021/01/06 00:43:00;;;;;;;27.23;13.43;;;0.60;99.90;;;;;;5051187;28;20726;-72
2021/01/06 00:45:27;;;;;;;28.17;13.77;;;0.60;99.90;;;;;;5052113;28;20692;-72
2021/01/06 00:47:54;;;;;;;27.70;14.03;;;0.60;99.90;;;;;;5052293;28;20213;-72
2021/01/06 00:50:23;;;;;;;25.17;14.43;;;0.70;99.90;;;;;;5052166;28;20193;-71
2021/01/06 00:52:48;;;;;;;24.77;12.90;;;0.60;99.90;;;;;;5050475;28;20645;-71
2021/01/06 00:55:15;;;;;;;26.13;13.83;;;0.70;99.90;;;;;;5048522;28;20607;-71
2021/01/06 00:57:41;;;;;;;23.17;14.17;;;0.70;99.90;;;;;;5046157;28;20252;-72
2021/01/06 01:00:16;;;;;;;26.10;14.10;;;0.70;99.90;;;;;;5039927;28;20179;-72
2021/01/06 01:02:49;;;;;;;28.03;13.87;;;0.70;99.90;;;;;;5044918;28;20173;-71
2021/01/06 01:05:14;;;;;;;28.27;13.70;;;0.70;99.90;;;;;;5049838;28;20197;-71
2021/01/06 01:07:40;;;;;;;27.27;14.10;;;0.80;99.90;;;;;;5051904;28;20170;-72
2021/01/06 01:10:06;;;;;;;24.87;13.90;;;0.80;99.90;;;;;;5034201;28;20174;-72
2021/01/06 01:12:32;;;;;;;29.70;15.27;;;0.80;99.90;;;;;;5051823;28;20190;-72
2021/01/06 01:14:58;;;;;;;28.90;15.27;;;0.80;99.90;;;;;;5050771;28;20185;-71
2021/01/06 01:17:24;;;;;;;28.23;15.17;;;0.70;99.90;;;;;;5051922;28;20205;-72
2021/01/06 01:19:49;;;;;;;27.50;15.57;;;0.60;99.90;;;;;;5051879;28;20169;-71
2021/01/06 01:22:15;;;;;;;31.00;15.60;;;0.60;99.90;;;;;;5054443;28;20207;-72
2021/01/06 01:24:41;;;;;;;27.57;15.63;;;0.60;99.90;;;;;;5055910;28;20178;-71
2021/01/06 01:27:07;;;;;;;29.60;14.77;;;0.60;99.90;;;;;;5055435;28;20670;-72
2021/01/06 01:29:32;;;;;;;28.30;14.87;;;0.60;99.90;;;;;;5054219;28;20178;-71
2021/01/06 01:31:58;;;;;;;29.17;15.47;;;0.60;99.90;;;;;;5055470;28;20197;-72
2021/01/06 01:34:23;;;;;;;26.30;15.17;;;0.60;99.90;;;;;;5049411;28;20185;-72
2021/01/06 01:36:50;;;;;;;30.37;14.77;;;0.60;99.90;;;;;;5055350;28;20264;-72
2021/01/06 01:39:17;;;;;;;26.33;14.53;;;0.60;99.90;;;;;;5055398;28;20178;-72
2021/01/06 01:41:44;;;;;;;30.53;15.17;;;0.60;99.90;;;;;;5055348;28;20248;-71
2021/01/06 01:44:14;;;;;;;28.10;15.27;;;0.60;99.90;;;;;;5055155;28;20227;-72
2021/01/06 01:47:06;;;;;;;31.73;15.57;;;0.60;99.90;;;;;;5053390;28;20683;-71
2021/01/06 01:49:47;;;;;;;28.70;15.50;;;0.60;99.90;;;;;;5055009;28;20170;-72
2021/01/06 01:52:38;;;;;;;27.80;14.93;;;0.60;99.90;;;;;;5054785;28;20193;-72
2021/01/06 01:55:06;;;;;;;27.23;14.73;;;0.60;99.90;;;;;;5052372;28;20190;-72
2021/01/06 01:57:38;;;;;;;34.33;16.83;;;0.60;99.90;;;;;;5047424;28;20186;-72
2021/01/06 02:00:11;;;;;;;31.13;16.27;;;0.70;99.90;;;;;;5054811;28;20524;-72
2021/01/06 02:02:48;;;;;;;32.60;15.97;;;0.70;99.90;;;;;;5053415;28;20224;-72
2021/01/06 02:05:22;;;;;;;34.87;16.20;;;0.70;99.90;;;;;;5055159;28;20555;-72
2021/01/06 02:07:58;;;;;;;27.83;15.37;;;0.60;99.90;;;;;;5054849;28;20177;-72
2021/01/06 02:10:31;;;;;;;32.47;16.00;;;0.60;99.90;;;;;;5055346;28;20201;-72
2021/01/06 02:13:13;;;;;;;32.03;16.33;;;0.50;99.90;;;;;;5054637;28;20648;-73
2021/01/06 02:15:56;;;;;;;32.93;16.73;;;0.60;99.90;;;;;;5054809;28;20174;-72
2021/01/06 02:18:22;;;;;;;31.40;16.40;;;0.50;99.90;;;;;;5054583;28;20177;-71
2021/01/06 02:21:04;;;;;;;32.47;16.67;;;0.50;99.90;;;;;;5054425;28;20236;-72
2021/01/06 02:23:30;;;;;;;34.37;16.93;;;0.50;99.90;;;;;;5054655;28;20184;-72
2021/01/06 02:25:56;;;;;;;30.87;15.57;;;0.50;99.90;;;;;;5054637;28;20215;-72
2021/01/06 02:28:22;;;;;;;32.27;15.97;;;0.50;99.90;;;;;;5054421;28;20260;-71
2021/01/06 02:30:49;;;;;;;33.23;16.03;;;0.50;99.90;;;;;;5054527;28;20216;-72
2021/01/06 02:33:14;;;;;;;30.60;15.40;;;0.40;99.90;;;;;;5053807;28;20169;-71
2021/01/06 02:35:40;;;;;;;38.00;16.33;;;0.40;99.90;;;;;;5053044;28;20563;-72
2021/01/06 02:38:06;;;;;;;29.37;14.90;;;0.80;99.90;;;;;;5052992;28;20211;-72
2021/01/06 02:40:32;;;;;;;32.80;15.77;;;0.40;99.90;;;;;;5054368;28;20247;-72
2021/01/06 02:42:58;;;;;;;33.07;16.63;;;0.50;99.90;;;;;;5054429;28;20192;-72
2021/01/06 02:45:24;;;;;;;32.97;16.90;;;0.50;99.90;;;;;;5054116;28;20201;-72
2021/01/06 02:47:51;;;;;;;28.13;15.13;;;0.50;99.90;;;;;;5054259;28;20185;-72
2021/01/06 02:50:23;;;;;;;32.27;15.97;;;0.50;99.90;;;;;;5054362;28;20182;-72
2021/01/06 02:53:03;;;;;;;31.33;14.93;;;0.50;99.90;;;;;;5054209;28;20181;-72
2021/01/06 02:55:32;;;;;;;31.13;16.57;;;0.60;99.90;;;;;;5048165;28;20196;-72
2021/01/06 02:58:05;;;;;;;29.37;15.93;;;0.60;99.90;;;;;;5042109;28;20275;-72
2021/01/06 03:00:30;;;;;;;31.73;15.77;;;0.70;99.90;;;;;;5027263;28;20250;-72
2021/01/06 03:02:59;;;;;;;30.43;15.73;;;0.60;99.90;;;;;;5036864;28;20209;-72
2021/01/06 03:05:37;;;;;;;29.80;16.30;;;0.60;99.90;;;;;;5055344;28;20232;-72
2021/01/06 03:08:03;;;;;;;31.10;15.77;;;0.60;99.90;;;;;;5055080;28;20176;-72
2021/01/06 03:10:29;;;;;;;35.77;16.67;;;0.60;99.90;;;;;;5052663;28;20636;-72
2021/01/06 03:12:57;;;;;;;30.07;15.53;;;0.60;99.90;;;;;;5053975;28;20194;-72
2021/01/06 03:15:26;;;;;;;35.77;16.80;;;0.60;99.90;;;;;;5053084;28;20519;-72
2021/01/06 03:17:53;;;;;;;31.17;15.47;;;0.60;99.90;;;;;;5052189;28;20173;-72
2021/01/06 03:20:42;;;;;;;35.10;16.60;;;0.60;99.90;;;;;;5053382;28;20232;-73
2021/01/06 03:23:25;;;;;;;33.03;16.77;;;0.50;99.90;;;;;;5045812;28;20247;-72
2021/01/06 03:25:54;;;;;;;29.70;16.43;;;0.50;99.90;;;;;;5053415;28;20202;-72
2021/01/06 03:28:21;;;;;;;34.07;16.50;;;0.60;99.90;;;;;;5053362;28;20177;-72
2021/01/06 03:30:49;;;;;;;30.27;16.33;;;0.60;99.90;;;;;;5053590;28;20208;-72
2021/01/06 03:33:23;;;;;;;30.87;16.30;;;0.70;99.90;;;;;;5053643;28;20177;-72
2021/01/06 03:36:00;;;;;;;36.07;17.37;;;0.70;99.90;;;;;;5051722;28;20610;-72
2021/01/06 03:38:37;;;;;;;33.90;18.00;;;0.60;99.90;;;;;;5053207;28;20212;-72
2021/01/06 03:41:06;;;;;;;38.40;18.23;;;0.50;99.90;;;;;;5052920;28;20270;-72
2021/01/06 03:43:36;;;;;;;33.63;17.17;;;0.50;99.90;;;;;;5051374;28;20270;-72
2021/01/06 03:46:10;;;;;;;38.97;17.63;;;0.50;99.90;;;;;;5050193;28;20290;-73
2021/01/06 03:48:51;;;;;;;35.20;17.77;;;0.50;99.90;;;;;;5052992;28;20177;-72
2021/01/06 03:51:40;;;;;;;41.87;21.30;;;0.50;99.90;;;;;;5052811;28;20240;-73
2021/01/06 03:54:28;;;;;;;35.43;18.03;;;0.40;99.90;;;;;;5053171;28;20178;-73
2021/01/06 03:56:57;;;;;;;34.10;17.37;;;0.50;99.90;;;;;;5043422;28;20597;-73
2021/01/06 03:59:27;;;;;;;38.33;19.27;;;0.60;99.90;;;;;;5052989;28;20276;-73
2021/01/06 04:02:20;;;;;;;43.37;20.03;;;0.60;99.90;;;;;;5051602;28;20580;-73
2021/01/06 04:04:56;;;;;;;41.70;18.67;;;0.50;99.90;;;;;;5052854;28;20548;-73
2021/01/06 04:07:33;;;;;;;36.67;18.00;;;0.60;99.90;;;;;;5052802;28;20244;-73
2021/01/06 04:10:10;;;;;;;36.43;18.17;;;0.60;99.90;;;;;;5052764;28;20181;-73
2021/01/06 04:12:36;;;;;;;35.23;18.07;;;0.60;99.90;;;;;;5052486;28;20197;-73
2021/01/06 04:15:04;;;;;;;38.20;18.63;;;0.60;99.90;;;;;;5051195;28;20212;-73
2021/01/06 04:17:35;;;;;;;41.27;19.70;;;0.60;99.90;;;;;;5053162;28;20253;-73
2021/01/06 04:20:14;;;;;;;38.43;19.53;;;0.60;99.90;;;;;;5052710;28;20213;-73
2021/01/06 04:22:44;;;;;;;42.97;19.20;;;0.60;99.90;;;;;;5052632;28;20173;-73
2021/01/06 04:25:26;;;;;;;41.90;19.47;;;0.60;99.90;;;;;;5052543;28;20243;-73
2021/01/06 04:27:54;;;;;;;38.63;18.60;;;0.60;99.90;;;;;;5051700;28;20220;-73
2021/01/06 04:30:44;;;;;;;36.67;18.13;;;0.60;99.90;;;;;;5052615;28;20176;-73
2021/01/06 04:33:16;;;;;;;35.27;17.73;;;0.50;99.90;;;;;;5045198;28;20190;-73
2021/01/06 04:35:42;;;;;;;35.50;18.00;;;0.60;99.90;;;;;;5052736;28;20383;-73
2021/01/06 04:38:08;;;;;;;38.00;17.83;;;0.60;99.90;;;;;;5052779;28;20192;-73
2021/01/06 04:40:40;;;;;;;34.40;17.67;;;0.60;99.90;;;;;;5052499;28;20205;-73
2021/01/06 04:43:40;;;;;;;33.67;17.47;;;0.60;99.90;;;;;;5052240;28;20801;-69
2021/01/06 04:46:24;;;;;;;35.17;17.43;;;0.50;99.90;;;;;;5052298;28;20198;-70
2021/01/06 04:49:03;;;;;;;36.17;18.63;;;0.50;99.90;;;;;;5052572;28;20185;-70
2021/01/06 04:51:50;;;;;;;37.33;18.40;;;0.50;99.90;;;;;;5052105;28;20327;-70
2021/01/06 04:54:35;;;;;;;38.60;18.43;;;0.40;99.90;;;;;;5052556;28;20531;-71
2021/01/06 04:57:31;;;;;;;37.30;18.10;;;0.40;99.90;;;;;;5044862;28;20200;-72
2021/01/06 05:00:51;;;;;;;40.10;18.70;;;0.40;99.90;;;;;;5025083;28;20548;-72
2021/01/06 05:03:49;;;;;;;35.80;18.83;;;0.30;99.90;;;;;;4985185;28;20728;-72
2021/01/06 05:06:50;;;;;;;39.73;18.97;;;0.30;99.90;;;;;;4986845;28;20294;-73
2021/01/06 05:09:23;;;;;;;35.07;18.43;;;0.40;99.90;;;;;;5011583;28;20190;-72
2021/01/06 05:11:59;;;;;;;33.67;18.17;;;0.40;99.90;;;;;;5055127;28;20558;-73
2021/01/06 05:14:34;;;;;;;39.53;19.33;;;0.40;99.90;;;;;;5055974;28;20173;-72
2021/01/06 05:17:00;;;;;;;38.47;19.90;;;0.30;99.90;;;;;;5054914;28;20313;-72
2021/01/06 05:19:31;;;;;;;37.53;19.93;;;0.30;99.90;;;;;;5055857;28;20184;-70
2021/01/06 05:21:59;;;;;;;38.10;19.63;;;0.30;99.90;;;;;;5055930;28;20205;-72
2021/01/06 05:24:24;;;;;;;41.30;20.73;;;0.30;99.90;;;;;;5055683;28;20181;-72
2021/01/06 05:26:58;;;;;;;41.97;21.33;;;0.30;99.90;;;;;;5055562;28;20259;-72
2021/01/06 05:29:27;;;;;;;43.27;21.53;;;0.30;99.90;;;;;;5055888;28;20169;-72
2021/01/06 05:31:53;;;;;;;41.10;20.67;;;0.30;99.90;;;;;;5055528;28;20201;-72
2021/01/06 05:34:20;;;;;;;39.53;21.10;;;0.30;99.90;;;;;;5055649;28;20655;-73
2021/01/06 05:36:46;;;;;;;47.47;22.10;;;0.30;99.90;;;;;;5055626;28;20174;-72
2021/01/06 05:39:28;;;;;;;47.27;22.43;;;0.10;99.90;;;;;;5055403;28;20246;-72
2021/01/06 05:42:24;;;;;;;45.30;22.67;;;0.00;99.90;;;;;;5055479;28;20209;-73
2021/01/06 05:44:53;;;;;;;47.83;22.83;;;0.00;99.90;;;;;;5054814;28;20566;-72
2021/01/06 05:47:36;;;;;;;49.50;22.77;;;0.00;99.90;;;;;;5055298;28;20299;-72
2021/01/06 05:50:36;;;;;;;45.27;22.13;;;0.10;99.90;;;;;;5054897;28;20268;-72
2021/01/06 05:53:15;;;;;;;48.90;22.83;;;0.10;99.90;;;;;;5032704;28;20194;-71
2021/01/06 05:55:44;;;;;;;49.10;22.37;;;0.10;99.90;;;;;;5043713;28;20182;-72
2021/01/06 05:58:33;;;;;;;44.23;21.73;;;0.10;99.90;;;;;;5052684;28;20637;-73
2021/01/06 06:01:02;;;;;;;44.73;21.53;;;0.10;99.90;;;;;;5055076;28;20225;-72
2021/01/06 06:03:31;;;;;;;51.93;23.13;;;0.10;99.90;;;;;;5055152;28;20191;-73
2021/01/06 06:06:19;;;;;;;52.20;23.20;;;0.10;99.90;;;;;;5054871;28;20201;-73
2021/01/06 06:09:12;;;;;;;44.27;21.20;;;0.10;99.90;;;;;;5053848;28;20173;-73
2021/01/06 06:12:23;;;;;;;45.40;21.27;;;0.10;99.90;;;;;;5054837;28;20960;-73
2021/01/06 06:15:16;;;;;;;43.43;21.70;;;0.20;99.90;;;;;;5031439;28;20268;-73
2021/01/06 06:18:06;;;;;;;39.83;21.03;;;0.20;99.90;;;;;;5053386;28;20181;-73
2021/01/06 06:20:40;;;;;;;38.10;21.20;;;0.30;99.90;;;;;;5054709;28;20194;-72
2021/01/06 06:23:12;;;;;;;43.97;21.50;;;0.20;99.90;;;;;;5054866;28;20187;-72
2021/01/06 06:25:48;;;;;;;37.30;19.73;;;0.20;99.90;;;;;;5053168;28;20197;-73
2021/01/06 06:28:22;;;;;;;40.90;21.00;;;0.20;99.90;;;;;;5054427;28;20267;-72
2021/01/06 06:30:59;;;;;;;42.17;21.07;;;0.20;99.90;;;;;;5054312;28;20209;-73
2021/01/06 06:33:32;;;;;;;46.17;22.23;;;0.20;99.90;;;;;;5054296;28;20174;-72
2021/01/06 06:36:01;;;;;;;43.80;21.83;;;0.30;99.90;;;;;;5054313;28;20640;-73
2021/01/06 06:38:39;;;;;;;44.20;21.20;;;0.20;99.90;;;;;;5054238;28;20652;-73
2021/01/06 06:41:09;;;;;;;44.23;22.10;;;0.20;99.90;;;;;;5054024;28;20271;-73
2021/01/06 06:43:37;;;;;;;45.30;21.63;;;0.20;99.90;;;;;;5054586;28;20182;-73
2021/01/06 06:46:38;;;;;;;45.03;22.60;;;0.20;99.90;;;;;;5052828;28;20208;-73
2021/01/06 06:49:34;;;;;;;46.03;23.53;;;0.20;99.90;;;;;;5054080;28;20637;-72
2021/01/06 06:52:08;;;;;;;43.17;20.47;;;0.20;99.90;;;;;;5054257;28;20194;-72
2021/01/06 06:54:48;;;;;;;47.57;22.10;;;0.20;99.90;;;;;;5054107;28;20528;-73
2021/01/06 06:57:46;;;;;;;47.37;22.47;;;0.20;99.90;;;;;;5034096;28;20635;-73
2021/01/06 07:00:24;;;;;;;47.00;22.63;;;0.20;99.90;;;;;;5041697;28;20197;-73
2021/01/06 07:02:55;;;;;;;47.30;23.40;;;0.10;99.90;;;;;;5054012;28;20252;-73
2021/01/06 07:05:55;;;;;;;44.80;22.27;;;0.10;99.90;;;;;;5054222;28;20208;-73
2021/01/06 07:08:28;;;;;;;39.70;21.50;;;0.10;99.90;;;;;;5053726;28;20235;-72
2021/01/06 07:11:15;;;;;;;48.17;23.43;;;0.10;99.90;;;;;;5053689;28;20197;-72
2021/01/06 07:13:41;;;;;;;47.47;22.33;;;0.10;99.90;;;;;;5043038;28;20600;-72
2021/01/06 07:16:16;;;;;;;43.27;22.47;;;0.10;99.90;;;;;;5053657;28;20180;-73
2021/01/06 07:18:49;;;;;;;47.03;22.77;;;0.20;99.90;;;;;;5052938;28;20189;-73
2021/01/06 07:21:22;;;;;;;45.30;23.10;;;0.10;99.90;;;;;;5053422;28;20727;-72
2021/01/06 07:24:09;;;;;;;48.73;22.87;;;0.10;99.90;;;;;;5053344;28;20185;-73
2021/01/06 07:26:43;;;;;;;46.73;22.30;;;0.20;99.90;;;;;;5053372;28;20287;-73
2021/01/06 07:29:12;;;;;;;52.37;24.87;;;0.20;99.90;;;;;;5053207;28;20157;-73
2021/01/06 07:32:01;;;;;;;46.50;22.93;;;0.10;99.90;;;;;;5053205;28;20198;-73
2021/01/06 07:34:49;;;;;;;45.00;22.60;;;0.20;99.90;;;;;;5051649;28;20177;-73
2021/01/06 07:37:27;;;;;;;45.27;22.63;;;0.10;99.90;;;;;;5045214;28;20185;-72
2021/01/06 07:39:58;;;;;;;42.83;21.23;;;0.10;99.90;;;;;;5053486;28;20750;-73
2021/01/06 07:42:38;;;;;;;50.60;23.57;;;0.20;99.90;;;;;;5053313;28;20193;-73
2021/01/06 07:45:24;;;;;;;46.53;23.57;;;0.20;99.90;;;;;;5052878;28;20177;-73
2021/01/06 07:48:06;;;;;;;46.83;22.03;;;0.20;99.90;;;;;;5052957;28;20180;-73
2021/01/06 07:50:34;;;;;;;45.33;22.13;;;0.20;99.90;;;;;;5048431;28;20671;-72
2021/01/06 07:53:13;;;;;;;43.17;21.73;;;0.20;99.90;;;;;;5052797;28;20169;-73
2021/01/06 07:55:56;;;;;;;45.23;23.20;;;0.20;99.90;;;;;;5045714;28;20197;-73
2021/01/06 07:58:34;;;;;;;47.27;23.63;;;0.20;99.90;;;;;;5052327;28;20173;-73
2021/01/06 08:01:03;;;;;;;46.40;23.77;;;0.20;99.90;;;;;;5042340;28;20218;-73
2021/01/06 08:03:34;;;;;;;48.97;24.23;;;0.20;99.90;;;;;;5041593;28;20192;-73
2021/01/06 08:06:02;;;;;;;44.70;23.50;;;0.20;99.90;;;;;;5057232;28;20194;-72
2021/01/06 08:08:49;;;;;;;48.87;24.10;;;0.30;99.90;;;;;;5056028;28;20541;-73
2021/01/06 08:11:19;;;;;;;44.67;22.17;;;0.30;99.90;;;;;;5032580;28;20699;-73
2021/01/06 08:13:47;;;;;;;41.27;21.30;;;0.30;99.90;;;;;;5031009;28;20182;-73
2021/01/06 08:16:28;;;;;;;46.27;22.87;;;0.30;99.90;;;;;;5030640;28;20656;-73
2021/01/06 08:19:06;;;;;;;46.23;22.37;;;0.30;99.90;;;;;;5040626;28;20653;-73
2021/01/06 08:21:49;;;;;;;46.33;22.47;;;0.30;99.90;;;;;;5026969;28;20205;-73
2021/01/06 08:24:20;;;;;;;45.23;22.13;;;0.30;99.90;;;;;;5041436;28;20207;-73
2021/01/06 08:27:01;;;;;;;44.50;21.00;;;0.30;99.90;;;;;;5037045;28;20229;-73
2021/01/06 08:29:35;;;;;;;50.33;24.20;;;0.20;99.90;;;;;;5052062;28;20185;-72
2021/01/06 08:32:06;;;;;;;46.20;23.50;;;0.30;99.90;;;;;;5051774;28;20193;-73
2021/01/06 08:34:35;;;;;;;50.23;25.33;;;0.40;99.90;;;;;;5052204;28;20636;-73
2021/01/06 08:37:07;;;;;;;48.37;25.00;;;0.30;99.90;;;;;;5051629;28;20261;-73
2021/01/06 08:39:54;;;;;;;48.90;23.57;;;0.30;99.90;;;;;;5032019;28;20220;-73
2021/01/06 08:42:42;;;;;;;46.43;23.03;;;0.30;99.90;;;;;;5032785;28;20560;-73
2021/01/06 08:45:22;;;;;;;53.27;24.50;;;0.30;99.90;;;;;;5029266;28;20790;-73
2021/01/06 08:47:48;;;;;;;49.77;24.07;;;0.30;99.90;;;;;;5048571;28;20174;-72
2021/01/06 08:50:26;;;;;;;49.77;23.67;;;0.30;99.90;;;;;;5047378;28;20241;-73
2021/01/06 08:53:04;;;;;;;48.80;24.00;;;0.30;99.90;;;;;;5030502;28;20170;-72
2021/01/06 08:55:33;;;;;;;45.93;23.03;;;0.40;99.90;;;;;;5036155;28;20212;-72
2021/01/06 08:58:11;;;;;;;45.87;21.70;;;0.40;99.90;;;;;;5037803;28;20174;-73
2021/01/06 09:00:43;;;;;;;48.27;23.13;;;0.40;99.90;;;;;;5031799;28;20288;-73
2021/01/06 09:03:44;;;;;;;49.87;23.07;;;0.40;99.90;;;;;;5040251;28;20601;-73
2021/01/06 09:06:10;;;;;;;45.43;22.93;;;0.50;99.90;;;;;;5021309;28;20210;-72
2021/01/06 09:08:36;;;;;;;39.73;21.37;;;0.50;99.90;;;;;;5032217;28;20568;-73
2021/01/06 09:11:04;;;;;;;44.53;23.10;;;0.60;99.90;;;;;;5022056;28;20230;-73
2021/01/06 09:13:55;;;;;;;47.00;23.60;;;0.60;99.90;;;;;;5024633;28;20712;-73
2021/01/06 09:16:40;;;;;;;49.77;24.50;;;0.50;99.90;;;;;;5033924;28;20186;-72
2021/01/06 09:19:11;;;;;;;45.73;23.93;;;0.50;99.90;;;;;;5020530;28;20194;-73
2021/01/06 09:21:38;;;;;;;46.60;23.80;;;0.50;99.90;;;;;;5031982;28;20202;-72
2021/01/06 09:24:15;;;;;;;45.27;22.83;;;0.50;99.90;;;;;;5031291;28;20173;-71
2021/01/06 09:26:46;;;;;;;45.53;23.60;;;0.50;99.90;;;;;;5026740;28;20567;-70
2021/01/06 09:29:16;;;;;;;46.80;23.77;;;0.60;99.90;;;;;;5020650;28;20179;-73
2021/01/06 09:31:57;;;;;;;51.17;25.27;;;0.60;99.90;;;;;;5027469;28;20202;-73
2021/01/06 09:34:55;;;;;;;44.93;23.33;;;0.60;99.90;;;;;;5031464;28;20196;-73
2021/01/06 09:37:30;;;;;;;46.93;24.10;;;0.60;99.90;;;;;;5009185;28;20187;-73
2021/01/06 09:40:14;;;;;;;48.03;24.40;;;0.60;99.90;;;;;;5026323;28;20178;-71
2021/01/06 09:42:40;;;;;;;45.10;23.87;;;0.60;99.90;;;;;;5024937;28;20174;-73
2021/01/06 09:45:16;;;;;;;45.77;24.67;;;0.60;99.90;;;;;;5036503;28;20181;-74
2021/01/06 09:47:43;;;;;;;41.43;22.67;;;0.60;99.90;;;;;;5028332;28;20182;-73
2021/01/06 09:50:30;;;;;;;46.43;24.57;;;0.60;99.90;;;;;;5021194;28;20234;-71
2021/01/06 09:52:58;;;;;;;50.63;25.50;;;0.50;99.90;;;;;;5031547;28;20185;-72
2021/01/06 09:55:26;;;;;;;47.47;25.47;;;0.50;99.90;;;;;;5029426;28;20637;-73
2021/01/06 09:58:33;;;;;;;46.67;24.67;;;0.50;99.90;;;;;;5029411;28;20178;-73
2021/01/06 10:01:17;;;;;;;50.37;24.43;;;0.40;99.90;;;;;;5026559;28;20227;-72
2021/01/06 10:03:45;;;;;;;49.87;25.50;;;0.40;99.90;;;;;;5022624;28;20261;-74
2021/01/06 10:06:23;;;;;;;52.93;25.40;;;0.40;99.90;;;;;;5030848;28;20241;-73
2021/01/06 10:09:05;;;;;;;48.23;25.43;;;0.50;99.90;;;;;;5033931;28;20181;-73
2021/01/06 10:11:59;;;;;;;50.53;26.40;;;0.50;99.90;;;;;;5028318;28;20195;-73
2021/01/06 10:14:44;;;;;;;44.70;23.87;;;0.60;99.90;;;;;;5020680;28;20183;-73
2021/01/06 10:17:20;;;;;;;48.50;24.57;;;0.60;99.90;;;;;;5029802;28;20179;-73
2021/01/06 10:20:13;;;;;;;49.73;24.50;;;0.60;99.90;;;;;;5023731;28;20661;-73
2021/01/06 10:22:49;;;;;;;46.80;25.00;;;0.60;99.90;;;;;;5023485;28;20191;-73
2021/01/06 10:25:44;;;;;;;47.73;25.87;;;0.70;99.90;;;;;;5036076;28;20182;-73
2021/01/06 10:28:22;;;;;;;48.67;25.00;;;0.70;99.90;;;;;;5030758;28;20684;-74
2021/01/06 10:31:19;;;;;;;48.57;25.30;;;0.70;99.90;;;;;;5029834;28;20289;-75
2021/01/06 10:34:09;;;;;;;44.90;23.90;;;0.70;99.90;;;;;;5018316;28;20182;-74
2021/01/06 10:36:59;;;;;;;43.70;24.23;;;0.70;99.90;;;;;;5029655;28;20240;-73
2021/01/06 10:39:34;;;;;;;45.40;23.87;;;0.70;99.90;;;;;;5027354;28;20174;-73
2021/01/06 10:42:02;;;;;;;47.23;25.37;;;0.80;99.90;;;;;;5031297;28;20703;-73
2021/01/06 10:44:37;;;;;;;43.53;24.53;;;0.70;99.90;;;;;;5029777;28;20177;-74
2021/01/06 10:47:31;;;;;;;48.43;25.73;;;0.80;99.90;;;;;;5036473;28;20662;-73
2021/01/06 10:50:05;;;;;;;45.00;24.43;;;0.80;99.90;;;;;;5045865;28;20239;-74
2021/01/06 10:52:54;;;;;;;46.53;25.17;;;0.80;99.90;;;;;;5030826;28;20663;-73
2021/01/06 10:55:29;;;;;;;47.47;25.10;;;0.80;99.90;;;;;;5020366;28;20190;-74
2021/01/06 10:58:10;;;;;;;47.03;25.07;;;0.80;99.90;;;;;;5026968;28;20206;-74
2021/01/06 11:00:51;;;;;;;48.23;25.57;;;0.80;99.90;;;;;;5019276;28;20211;-73
2021/01/06 11:03:34;;;;;;;45.97;25.47;;;0.80;99.90;;;;;;5030444;28;20181;-74
2021/01/06 11:06:18;;;;;;;44.40;24.50;;;0.90;99.90;;;;;;5050714;28;20207;-74
2021/01/06 11:09:08;;;;;;;46.93;25.83;;;0.90;99.90;;;;;;5053658;28;20635;-74
2021/01/06 11:12:01;;;;;;;45.20;24.93;;;0.90;99.90;;;;;;5041959;28;20222;-74
2021/01/06 11:14:53;;;;;;;45.47;23.93;;;0.90;99.90;;;;;;5052409;28;20714;-74
2021/01/06 11:17:18;;;;;;;44.30;24.70;;;0.90;99.90;;;;;;5053487;28;20178;-74
2021/01/06 11:19:46;;;;;;;46.40;25.27;;;0.80;99.90;;;;;;5054055;28;20170;-73
2021/01/06 11:22:36;;;;;;;43.30;23.67;;;0.80;99.90;;;;;;5053457;28;20198;-71
2021/01/06 11:25:31;;;;;;;43.10;23.33;;;0.90;99.90;;;;;;5053576;28;20173;-72
2021/01/06 11:27:57;;;;;;;44.13;24.10;;;0.90;99.90;;;;;;5052304;28;20173;-71
2021/01/06 11:30:25;;;;;;;45.30;24.37;;;0.90;99.90;;;;;;5052301;28;20676;-73
2021/01/06 11:33:15;;;;;;;45.20;24.43;;;0.90;99.90;;;;;;5053344;28;20185;-74
2021/01/06 11:36:06;;;;;;;46.57;23.70;;;0.90;99.90;;;;;;5053412;28;20539;-74
2021/01/06 11:38:38;;;;;;;45.33;24.30;;;0.90;99.90;;;;;;5054003;28;20224;-74
2021/01/06 11:41:06;;;;;;;44.97;25.67;;;0.90;99.90;;;;;;5053382;28;20210;-73
2021/01/06 11:43:37;;;;;;;41.57;23.73;;;0.90;99.90;;;;;;5047030;28;20182;-73
2021/01/06 11:46:33;;;;;;;42.83;23.13;;;0.90;99.90;;;;;;5053022;28;20255;-74
2021/01/06 11:49:11;;;;;;;45.20;24.37;;;0.90;99.90;;;;;;5052787;28;20185;-73
2021/01/06 11:52:16;;;;;;;42.10;23.40;;;0.90;99.90;;;;;;5044515;28;20206;-73
2021/01/06 11:55:10;;;;;;;41.70;23.37;;;0.80;99.90;;;;;;5050187;28;20174;-74
2021/01/06 11:57:45;;;;;;;41.63;24.40;;;0.80;99.90;;;;;;5034150;28;20213;-74
2021/01/06 12:00:44;;;;;;;48.30;24.60;;;0.80;99.90;;;;;;5051778;28;20598;-74
2021/01/06 12:03:13;;;;;;;44.23;23.33;;;0.80;99.90;;;;;;5051002;28;20178;-74
2021/01/06 12:06:04;;;;;;;43.73;24.40;;;0.90;99.90;;;;;;5049913;28;20206;-73
2021/01/06 12:09:00;;;;;;;47.70;24.10;;;0.90;99.90;;;;;;5051581;28;20174;-74
2021/01/06 12:12:08;;;;;;;45.50;24.17;;;0.90;99.90;;;;;;5052747;28;20200;-72
2021/01/06 12:15:13;;;;;;;44.97;23.97;;;1.00;99.90;;;;;;5052839;28;20173;-72
2021/01/06 12:17:50;;;;;;;48.43;25.43;;;1.00;99.90;;;;;;5051934;28;20247;-73
2021/01/06 12:20:24;;;;;;;41.07;22.93;;;1.00;99.90;;;;;;5052406;28;20188;-72
2021/01/06 12:23:14;;;;;;;38.83;23.10;;;1.00;99.90;;;;;;5052448;28;20169;-73
2021/01/06 12:25:48;;;;;;;42.37;22.13;;;1.00;99.90;;;;;;5052355;28;20202;-73
2021/01/06 12:28:30;;;;;;;39.27;21.90;;;1.00;99.90;;;;;;5052473;28;20263;-73
2021/01/06 12:31:17;;;;;;;37.57;21.97;;;1.00;99.90;;;;;;5038801;28;20201;-72
2021/01/06 12:34:02;;;;;;;37.47;21.07;;;1.00;99.90;;;;;;5051655;28;20192;-74
2021/01/06 12:36:35;;;;;;;35.50;20.87;;;1.00;99.90;;;;;;5044580;28;20191;-74
2021/01/06 12:39:25;;;;;;;41.30;21.47;;;1.00;99.90;;;;;;5046492;28;20666;-73
2021/01/06 12:42:13;;;;;;;34.13;20.27;;;1.00;99.90;;;;;;5040088;28;20738;-73
2021/01/06 12:44:43;;;;;;;39.43;20.87;;;1.00;99.90;;;;;;5023979;28;20177;-73
2021/01/06 12:47:16;;;;;;;39.27;21.20;;;1.00;99.90;;;;;;5026100;28;20202;-73
2021/01/06 12:49:56;;;;;;;40.90;21.73;;;1.00;99.90;;;;;;5044905;28;20551;-74
2021/01/06 12:52:34;;;;;;;40.00;22.33;;;1.00;99.90;;;;;;5032857;28;20283;-73
2021/01/06 12:55:18;;;;;;;35.03;19.93;;;1.00;99.90;;;;;;5032239;28;20186;-73
2021/01/06 12:58:12;;;;;;;35.47;20.73;;;1.00;99.90;;;;;;5037988;28;20175;-73
2021/01/06 13:00:44;;;;;;;33.87;20.13;;;1.00;99.90;;;;;;5001173;28;20222;-73
2021/01/06 13:03:21;;;;;;;39.77;21.07;;;1.00;99.90;;;;;;5032828;28;20253;-73
2021/01/06 13:06:09;;;;;;;36.73;20.50;;;1.00;99.90;;;;;;5043570;28;20201;-73
2021/01/06 13:08:55;;;;;;;36.17;20.47;;;1.00;99.90;;;;;;5055912;28;20248;-73
2021/01/06 13:11:36;;;;;;;36.53;20.63;;;1.00;99.90;;;;;;5043572;28;20213;-75
2021/01/06 13:14:18;;;;;;;35.10;20.53;;;1.00;99.90;;;;;;5052880;28;20170;-75
2021/01/06 13:17:01;;;;;;;32.10;19.87;;;1.00;99.90;;;;;;5051634;28;20182;-74
2021/01/06 13:19:29;;;;;;;32.87;20.60;;;0.90;99.90;;;;;;5055377;28;20714;-74
2021/01/06 13:22:14;;;;;;;34.80;20.07;;;0.90;99.90;;;;;;5055251;28;20204;-74
2021/01/06 13:24:42;;;;;;;30.73;18.93;;;0.90;99.90;;;;;;5055306;28;20648;-75